Time;durP1;ratioP1;P1;durP2;ratioP2;P2;SDS_P1;SDS_P2;PMS_P1;PMS_P2;Temp;Humidity;BMP_temperature;BMP_pressure;BME280_temperature;BME280_humidity;BME280_pressure;Samples;Min_cycle;Max_cycle;Signal;HPM_P1;HPM_P2
2021/05/10 00:00:07;;;;;;;6.17;4.53;;;;;;;1.73;81.94;101074.47;1805310;79;22365;-80
2021/05/10 00:02:37;;;;;;;6.95;4.35;;;;;;;1.76;82.33;101082.30;1805204;79;21185;-80
2021/05/10 00:05:07;;;;;;;6.05;4.35;;;;;;;1.76;82.35;101078.39;1805571;79;21125;-80
2021/05/10 00:07:35;;;;;;;7.45;4.33;;;;;;;1.78;82.62;101080.59;1801719;79;21162;-81
2021/05/10 00:10:05;;;;;;;8.28;4.33;;;;;;;1.77;82.31;101077.56;1813614;77;21146;-80
2021/05/10 00:12:33;;;;;;;6.50;4.40;;;;;;;1.77;82.21;101082.76;1821667;78;21429;-84
2021/05/10 00:15:02;;;;;;;7.28;4.25;;;;;;;1.78;82.64;101081.03;1821379;78;21181;-82
2021/05/10 00:17:30;;;;;;;5.25;4.42;;;;;;;1.76;82.67;101082.30;1821463;78;21657;-80
2021/05/10 00:19:58;;;;;;;5.55;3.83;;;;;;;1.75;82.63;101084.45;1821649;78;21123;-80
2021/05/10 00:22:26;;;;;;;6.35;3.98;;;;;;;1.74;82.71;101082.69;1822622;78;21638;-79
2021/05/10 00:24:55;;;;;;;9.15;4.67;;;;;;;1.72;82.83;101080.50;1821692;78;21377;-80
2021/05/10 00:27:24;;;;;;;7.22;4.60;;;;;;;1.73;82.96;101078.80;1820571;78;21250;-79
2021/05/10 00:29:53;;;;;;;6.62;4.72;;;;;;;1.66;82.77;101072.64;1819935;78;21228;-83
2021/05/10 00:32:21;;;;;;;9.53;5.28;;;;;;;1.63;82.74;101071.27;1804612;78;21167;-84
2021/05/10 00:34:52;;;;;;;6.83;4.70;;;;;;;1.62;83.22;101072.14;1788885;80;21197;-84
2021/05/10 00:37:20;;;;;;;9.45;4.55;;;;;;;1.62;83.08;101074.73;1789388;78;21452;-82
2021/05/10 00:42:10;;;;;;;7.73;4.63;;;;;;;1.62;83.13;101079.93;1887858;76;22525;-83
2021/05/10 00:44:39;;;;;;;6.25;4.58;;;;;;;1.55;83.22;101080.27;1858862;77;21158;-83
2021/05/10 00:47:07;;;;;;;8.93;5.12;;;;;;;1.56;83.09;101082.42;1858562;77;21384;-81
2021/05/10 00:49:36;;;;;;;9.05;4.90;;;;;;;1.52;83.10;101081.52;1858468;77;21114;-78
2021/05/10 00:52:05;;;;;;;6.65;4.65;;;;;;;1.50;82.95;101086.25;1858384;77;21293;-79
2021/05/10 00:54:34;;;;;;;9.95;5.30;;;;;;;1.47;82.92;101092.23;1858419;77;21182;-79
2021/05/10 00:57:03;;;;;;;6.42;4.62;;;;;;;1.43;83.03;101091.33;1858390;77;21174;-80
2021/05/10 00:59:32;;;;;;;12.63;5.20;;;;;;;1.41;83.50;101087.84;1858634;77;21355;-80
2021/05/10 01:02:01;;;;;;;7.62;5.00;;;;;;;1.43;83.82;101089.17;1858390;77;21570;-77
2021/05/10 01:04:29;;;;;;;12.80;5.28;;;;;;;1.42;83.82;101096.06;1858554;77;21577;-79
2021/05/10 01:07:02;;;;;;;8.90;5.42;;;;;;;1.40;83.72;101095.19;1858488;77;21208;-81
2021/05/10 01:09:30;;;;;;;8.18;5.15;;;;;;;1.39;83.73;101097.75;1858331;77;21583;-82
2021/05/10 01:11:58;;;;;;;9.20;5.87;;;;;;;1.35;83.88;101095.52;1858765;77;21373;-79
2021/05/10 01:14:27;;;;;;;7.22;4.90;;;;;;;1.34;84.04;101089.02;1853552;77;21578;-83
2021/05/10 01:16:55;;;;;;;10.08;5.37;;;;;;;1.31;84.17;101095.04;1858634;77;21242;-82
2021/05/10 01:19:23;;;;;;;8.65;5.42;;;;;;;1.29;84.24;101099.33;1858603;77;21174;-82
2021/05/10 01:21:52;;;;;;;6.80;4.75;;;;;;;1.27;84.33;101097.13;1853352;77;21063;-83
2021/05/10 01:24:20;;;;;;;9.55;5.05;;;;;;;1.24;84.37;101098.36;1858659;77;21396;-82
2021/05/10 01:26:47;;;;;;;7.35;4.90;;;;;;;1.23;84.48;101104.41;1848386;77;21134;-83
2021/05/10 01:29:16;;;;;;;6.62;4.55;;;;;;;1.18;84.56;101095.69;1824975;77;21617;-83
2021/05/10 01:31:44;;;;;;;11.33;5.20;;;;;;;1.22;84.78;101102.64;1825084;77;21411;-81
2021/05/10 01:34:13;;;;;;;10.23;5.35;;;;;;;1.18;84.77;101098.28;1824988;77;21091;-83
2021/05/10 01:36:41;;;;;;;6.25;4.80;;;;;;;1.19;84.70;101101.30;1825122;77;21261;-81
2021/05/10 01:39:09;;;;;;;8.95;5.25;;;;;;;1.17;84.69;101105.59;1825044;77;21143;-81
2021/05/10 01:41:40;;;;;;;10.23;5.45;;;;;;;1.14;84.65;101104.25;1825366;77;21550;-81
2021/05/10 01:44:08;;;;;;;16.40;5.87;;;;;;;1.12;84.63;101108.54;1824868;78;21155;-83
2021/05/10 01:46:36;;;;;;;10.65;5.62;;;;;;;1.09;84.85;101107.20;1825064;77;21722;-80
2021/05/10 01:49:05;;;;;;;9.25;5.40;;;;;;;1.07;84.81;101107.59;1825186;77;21324;-82
2021/05/10 01:51:33;;;;;;;10.58;5.50;;;;;;;1.03;84.96;101114.00;1824670;77;21554;-83
2021/05/10 01:54:00;;;;;;;6.50;4.72;;;;;;;1.02;85.17;101117.46;1824329;78;21174;-83
2021/05/10 01:56:29;;;;;;;6.33;5.10;;;;;;;1.01;85.25;101118.32;1824654;77;21156;-84
2021/05/10 01:58:58;;;;;;;7.33;4.83;;;;;;;1.00;85.13;101118.28;1824410;78;21162;-81
2021/05/10 02:01:27;;;;;;;7.10;4.97;;;;;;;0.97;85.03;101123.00;1824544;78;21793;-81
2021/05/10 02:04:00;;;;;;;8.25;4.80;;;;;;;0.94;84.97;101121.63;1825723;77;21642;-83
2021/05/10 02:06:28;;;;;;;12.05;5.17;;;;;;;0.94;85.08;101122.92;1824783;77;21174;-83
2021/05/10 02:09:00;;;;;;;7.28;5.15;;;;;;;0.94;85.07;101125.94;1825195;77;21126;-82
2021/05/10 02:11:28;;;;;;;7.65;5.58;;;;;;;0.91;85.02;101125.47;1826897;77;21247;-86
2021/05/10 02:13:56;;;;;;;10.03;5.00;;;;;;;0.87;85.07;101128.84;1825748;77;21379;-85
2021/05/10 02:16:25;;;;;;;8.75;5.62;;;;;;;0.85;85.08;101133.13;1826773;77;21285;-81
2021/05/10 02:18:56;;;;;;;19.00;13.15;;;;;;;0.86;85.23;101137.48;1857934;77;21657;-81
2021/05/10 02:21:29;;;;;;;11.10;7.97;;;;;;;0.88;85.62;101140.98;1857832;77;21199;-81
2021/05/10 02:23:58;;;;;;;8.60;6.50;;;;;;;0.89;85.71;101137.96;1857687;77;21190;-82
2021/05/10 02:26:26;;;;;;;10.32;5.60;;;;;;;0.90;85.76;101144.48;1852439;77;21189;-78
2021/05/10 02:29:01;;;;;;;11.05;5.97;;;;;;;0.90;85.84;101141.89;1823980;78;21661;-79
2021/05/10 02:31:24;;;;;;;8.80;4.40;;;;;;;0.92;85.75;101141.89;1823270;78;21218;-78
2021/05/10 02:33:53;;;;;;;10.65;6.00;;;;;;;0.92;85.73;101145.39;1824045;78;21807;-80
2021/05/10 02:36:21;;;;;;;8.25;5.22;;;;;;;0.94;85.85;101141.08;1824189;78;21179;-78
2021/05/10 02:38:49;;;;;;;15.30;7.35;;;;;;;0.94;85.75;101135.89;1824396;78;21386;-78
2021/05/10 02:41:17;;;;;;;14.07;7.30;;;;;;;0.94;85.61;101135.89;1813264;78;21288;-79
2021/05/10 02:43:45;;;;;;;8.28;5.53;;;;;;;0.93;85.45;101139.34;1792223;80;21229;-79
2021/05/10 02:46:12;;;;;;;13.20;6.67;;;;;;;0.91;85.49;101131.95;1794893;77;21099;-79
2021/05/10 02:48:40;;;;;;;12.80;8.08;;;;;;;0.97;85.57;101141.58;1796580;77;21027;-81
2021/05/10 02:51:13;;;;;;;21.20;9.10;;;;;;;0.97;85.56;101146.34;1795447;77;21744;-79
2021/05/10 02:53:41;;;;;;;20.12;9.05;;;;;;;0.96;85.39;101139.39;1791999;80;21205;-81
2021/05/10 02:56:10;;;;;;;15.13;7.33;;;;;;;0.99;85.36;101147.25;1792059;80;21159;-77
2021/05/10 02:58:38;;;;;;;14.03;7.10;;;;;;;1.00;85.21;101153.30;1794560;80;21146;-80
2021/05/10 03:01:06;;;;;;;11.70;7.15;;;;;;;1.04;85.29;101149.50;1791679;78;21143;-80
2021/05/10 03:03:35;;;;;;;12.25;6.90;;;;;;;1.11;85.43;101152.20;1789323;80;21376;-80
2021/05/10 03:06:05;;;;;;;11.57;6.80;;;;;;;1.19;85.89;101154.50;1795547;78;21178;-78
2021/05/10 03:08:33;;;;;;;14.53;6.87;;;;;;;1.31;86.07;101158.63;1767378;80;21620;-79
2021/05/10 03:11:01;;;;;;;12.07;7.00;;;;;;;1.43;86.11;101158.83;1754739;81;21190;-76
2021/05/10 03:13:30;;;;;;;14.63;7.10;;;;;;;1.57;86.13;101162.95;1754185;81;21135;-74
2021/05/10 03:15:59;;;;;;;15.83;7.28;;;;;;;1.71;86.25;101159.27;1754189;81;21373;-79
2021/05/10 03:18:27;;;;;;;15.15;7.20;;;;;;;1.88;86.35;101166.01;1753671;81;21134;-77
2021/05/10 03:20:55;;;;;;;11.53;6.72;;;;;;;2.08;86.21;101166.31;1753769;81;21198;-79
2021/05/10 03:23:24;;;;;;;15.38;7.20;;;;;;;2.31;86.04;101163.59;1753697;81;21218;-81
2021/05/10 03:25:53;;;;;;;13.32;6.50;;;;;;;2.77;85.78;101168.93;1753822;81;21285;-81
2021/05/10 03:28:21;;;;;;;12.47;6.03;;;;;;;3.49;84.71;101161.39;1783322;80;21701;-81
2021/05/10 03:30:50;;;;;;;13.40;7.75;;;;;;;4.34;82.91;101163.28;1785175;80;21734;-81
2021/05/10 03:33:18;;;;;;;17.15;8.98;;;;;;;5.14;79.45;101161.81;1786127;80;21769;-80
2021/05/10 03:35:47;;;;;;;16.15;9.55;;;;;;;5.79;76.67;101163.14;1786127;80;21178;-80
2021/05/10 03:38:15;;;;;;;16.35;9.53;;;;;;;6.34;73.88;101165.69;1784898;80;21179;-80
2021/05/10 03:40:43;;;;;;;16.75;8.60;;;;;;;6.84;72.52;101168.99;1784753;80;21389;-79
2021/05/10 03:43:12;;;;;;;22.32;8.98;;;;;;;7.39;70.17;101171.72;1808973;78;21228;-78
2021/05/10 03:45:40;;;;;;;17.85;10.00;;;;;;;7.91;68.26;101169.53;1792661;80;21112;-78
2021/05/10 03:48:08;;;;;;;16.15;9.55;;;;;;;8.45;66.29;101171.61;1791490;80;21554;-69
2021/05/10 03:50:37;;;;;;;18.98;10.00;;;;;;;8.89;64.82;101171.95;1796156;78;21205;-69
2021/05/10 03:53:05;;;;;;;20.70;10.18;;;;;;;9.30;62.65;101167.41;1803481;77;21651;-69
2021/05/10 03:55:33;;;;;;;26.12;10.53;;;;;;;9.71;61.68;101175.09;1776935;79;21646;-71
2021/05/10 03:58:01;;;;;;;15.98;7.58;;;;;;;10.16;60.48;101176.47;1791888;78;21208;-70
2021/05/10 04:00:29;;;;;;;16.90;9.35;;;;;;;10.63;59.68;101173.41;1813512;77;21154;-69
2021/05/10 04:02:59;;;;;;;15.85;9.18;;;;;;;11.11;58.00;101173.25;1780059;79;21174;-70
2021/05/10 04:15:56;;;;;;;13.15;9.13;;;;;;;13.17;50.84;101170.39;1775305;80;21190;-71
2021/05/10 04:18:24;;;;;;;18.48;10.15;;;;;;;13.52;48.96;101173.72;1802858;78;21366;-71
2021/05/10 04:20:52;;;;;;;16.07;9.53;;;;;;;13.83;47.51;101172.72;1808365;78;21808;-71
2021/05/10 04:23:20;;;;;;;17.25;9.23;;;;;;;14.12;47.02;101174.34;1818259;78;21182;-69
2021/05/10 04:25:51;;;;;;;16.73;9.25;;;;;;;14.52;46.39;101175.58;1823863;78;21241;-71
2021/05/10 04:28:19;;;;;;;14.70;8.95;;;;;;;14.90;45.24;101176.80;1823845;78;21154;-71
2021/05/10 04:30:49;;;;;;;14.58;9.65;;;;;;;15.22;44.75;101172.50;1808755;78;22215;-71
2021/05/10 04:33:30;;;;;;;19.17;10.78;;;;;;;15.57;43.27;101175.05;1763487;81;21205;-70
2021/05/10 04:36:00;;;;;;;20.12;10.38;;;;;;;15.92;42.14;101178.08;1772269;80;21129;-71
2021/05/10 04:38:30;;;;;;;17.12;9.98;;;;;;;16.20;41.35;101179.55;1772642;80;21185;-70
2021/05/10 04:40:59;;;;;;;16.85;10.10;;;;;;;16.50;40.24;101180.83;1763893;81;21181;-71
2021/05/10 04:43:27;;;;;;;29.37;11.55;;;;;;;16.88;38.66;101186.21;1728701;81;21652;-70
2021/05/10 04:45:59;;;;;;;16.00;9.60;;;;;;;17.13;37.60;101183.73;1727082;83;21269;-72
2021/05/10 04:48:25;;;;;;;17.30;10.20;;;;;;;17.33;34.75;101188.97;1742939;81;21254;-71
2021/05/10 04:50:53;;;;;;;16.45;10.10;;;;;;;17.53;34.04;101191.11;1733242;81;21168;-70
2021/05/10 04:53:21;;;;;;;19.55;10.58;;;;;;;17.63;33.51;101189.73;1743062;81;21150;-73
2021/05/10 04:55:50;;;;;;;16.67;10.10;;;;;;;17.64;34.08;101196.78;1742519;81;21383;-71
2021/05/10 04:58:18;;;;;;;18.82;10.63;;;;;;;17.80;33.03;101199.55;1745699;81;21176;-70
2021/05/10 05:00:46;;;;;;;17.82;9.83;;;;;;;17.80;32.78;101200.39;1745427;81;21186;-71
2021/05/10 05:03:14;;;;;;;16.97;10.93;;;;;;;17.98;32.66;101199.97;1751167;81;21325;-71
2021/05/10 05:05:43;;;;;;;19.80;10.80;;;;;;;18.16;32.26;101194.17;1737033;81;21141;-70
2021/05/10 05:08:14;;;;;;;18.30;10.68;;;;;;;18.33;32.55;101197.77;1733018;81;21218;-72
2021/05/10 05:10:42;;;;;;;14.80;9.80;;;;;;;18.28;32.79;101195.34;1733209;82;21150;-71
2021/05/10 05:13:12;;;;;;;17.20;9.40;;;;;;;18.51;32.60;101203.46;1737663;81;21135;-71
2021/05/10 05:15:40;;;;;;;11.28;7.10;;;;;;;18.76;31.98;101211.49;1729795;81;21179;-71
2021/05/10 05:18:08;;;;;;;15.60;8.70;;;;;;;18.85;31.02;101208.36;1758242;81;22109;-71
2021/05/10 05:20:37;;;;;;;15.08;8.68;;;;;;;18.92;32.53;101207.08;1733154;82;21407;-73
2021/05/10 05:23:24;;;;;;;15.18;8.20;;;;;;;18.95;31.46;101197.55;1733331;81;21143;-71
2021/05/10 05:25:57;;;;;;;19.10;9.68;;;;;;;19.11;31.33;101200.72;1742849;81;21187;-71
2021/05/10 05:28:26;;;;;;;17.12;10.03;;;;;;;19.27;31.30;101185.55;1741792;81;21171;-71
2021/05/10 05:30:56;;;;;;;15.72;9.23;;;;;;;19.40;30.36;101193.74;1743650;81;21161;-72
2021/05/10 05:33:24;;;;;;;11.45;8.45;;;;;;;19.36;30.33;101195.71;1745789;81;21817;-71
2021/05/10 05:35:53;;;;;;;13.00;8.70;;;;;;;19.36;30.58;101193.05;1739376;81;21226;-71
2021/05/10 05:38:21;;;;;;;13.95;8.58;;;;;;;19.47;30.32;101187.95;1748377;81;21195;-70
2021/05/10 05:40:49;;;;;;;10.32;7.35;;;;;;;19.54;30.67;101192.95;1743479;81;21733;-71
2021/05/10 05:43:17;;;;;;;12.60;7.70;;;;;;;19.77;30.37;101187.16;1762169;80;21490;-71
2021/05/10 05:45:46;;;;;;;14.50;7.78;;;;;;;20.04;29.59;101197.17;1762935;80;21366;-71
2021/05/10 05:48:14;;;;;;;11.95;6.92;;;;;;;20.12;30.24;101194.89;1769017;80;21223;-71
2021/05/10 05:50:43;;;;;;;10.48;7.15;;;;;;;20.10;29.02;101200.80;1767055;79;21198;-71
2021/05/10 05:53:10;;;;;;;10.75;6.87;;;;;;;20.27;29.32;101199.32;1790269;78;21206;-74
2021/05/10 05:55:41;;;;;;;12.40;7.25;;;;;;;20.51;28.59;101199.62;1790513;79;21210;-72
2021/05/10 05:58:10;;;;;;;12.23;6.50;;;;;;;20.64;28.28;101193.08;1789634;79;21419;-71
2021/05/10 06:00:41;;;;;;;12.13;6.50;;;;;;;20.66;27.31;101190.28;1767165;79;21239;-71
2021/05/10 06:03:11;;;;;;;10.80;6.80;;;;;;;20.53;28.01;101188.83;1774456;79;21150;-72
2021/05/10 06:05:39;;;;;;;9.78;6.28;;;;;;;20.59;28.49;101192.95;1795600;78;21569;-72
2021/05/10 06:08:07;;;;;;;10.63;6.62;;;;;;;20.76;27.77;101190.11;1790600;79;21143;-71
2021/05/10 06:10:36;;;;;;;7.37;5.55;;;;;;;21.02;27.54;101190.27;1784543;79;21374;-73
2021/05/10 06:13:04;;;;;;;10.95;5.95;;;;;;;21.26;26.97;101185.16;1794776;79;21209;-73
2021/05/10 06:15:33;;;;;;;7.83;5.65;;;;;;;21.34;27.00;101190.86;1785631;79;21210;-73
2021/05/10 06:18:01;;;;;;;7.83;5.12;;;;;;;21.27;26.88;101185.52;1792647;79;21174;-73
2021/05/10 06:20:29;;;;;;;12.70;4.35;;;;;;;21.07;26.77;101186.34;1789940;79;21171;-73
2021/05/10 06:22:57;;;;;;;7.33;4.28;;;;;;;21.05;27.44;101196.75;1785599;79;22182;-71
2021/05/10 06:25:26;;;;;;;7.00;3.40;;;;;;;20.99;27.18;101192.66;1790867;79;21142;-73
2021/05/10 06:27:54;;;;;;;3.90;3.10;;;;;;;20.97;25.23;101200.41;1766284;79;21182;-73
2021/05/10 06:30:22;;;;;;;7.05;3.42;;;;;;;20.96;25.46;101195.55;1774745;80;21602;-72
2021/05/10 06:32:50;;;;;;;3.70;2.35;;;;;;;20.99;25.16;101202.03;1784871;80;21166;-72
2021/05/10 06:35:18;;;;;;;6.42;3.02;;;;;;;21.00;24.30;101201.06;1773169;79;21382;-70
2021/05/10 06:37:46;;;;;;;6.42;4.33;;;;;;;21.17;24.15;101200.00;1795452;79;21653;-73
2021/05/10 06:40:14;;;;;;;9.60;3.50;;;;;;;21.22;24.54;101198.36;1792411;79;21403;-71
2021/05/10 06:42:43;;;;;;;7.22;3.12;;;;;;;21.09;24.03;101200.47;1788110;79;21150;-71
2021/05/10 06:45:14;;;;;;;11.40;3.80;;;;;;;20.98;24.93;101201.67;1768800;78;21167;-72
2021/05/10 06:47:42;;;;;;;7.92;2.95;;;;;;;21.11;24.18;101209.27;1786147;79;22384;-73
2021/05/10 06:50:12;;;;;;;15.05;3.30;;;;;;;21.13;23.66;101210.03;1762631;79;21176;-71
2021/05/10 06:52:40;;;;;;;12.70;3.85;;;;;;;21.28;23.30;101203.30;1777124;80;21165;-70
2021/05/10 06:55:09;;;;;;;11.78;2.92;;;;;;;21.63;23.03;101202.86;1786957;78;21203;-72
2021/05/10 06:57:39;;;;;;;10.48;3.00;;;;;;;21.86;21.94;101207.54;1777313;80;21218;-72
2021/05/10 07:00:08;;;;;;;6.03;2.77;;;;;;;21.99;22.09;101206.21;1810248;78;21170;-70
2021/05/10 07:02:36;;;;;;;7.60;2.20;;;;;;;22.05;22.96;101206.30;1803595;78;21182;-74
2021/05/10 07:05:05;;;;;;;2.95;1.85;;;;;;;21.89;21.38;101191.23;1813485;78;21441;-72
2021/05/10 07:07:34;;;;;;;2.83;1.80;;;;;;;21.84;21.80;101200.08;1814691;78;22290;-71
2021/05/10 07:10:05;;;;;;;3.08;1.95;;;;;;;21.75;21.63;101190.83;1810518;78;21195;-73
2021/05/10 07:12:33;;;;;;;4.33;2.00;;;;;;;21.77;21.60;101194.75;1828923;77;21376;-73
2021/05/10 07:15:02;;;;;;;3.30;2.37;;;;;;;21.80;21.26;101193.20;1788230;79;22132;-71
2021/05/10 07:17:33;;;;;;;3.87;2.30;;;;;;;21.91;21.16;101187.12;1775583;80;21186;-71
2021/05/10 07:20:01;;;;;;;5.67;2.33;;;;;;;22.20;21.83;101190.01;1802869;79;21122;-71
2021/05/10 07:22:29;;;;;;;3.62;2.10;;;;;;;22.51;21.32;101183.86;1800839;78;21154;-73
2021/05/10 07:24:58;;;;;;;2.72;1.72;;;;;;;22.55;21.08;101182.69;1795699;78;21195;-72
2021/05/10 07:27:27;;;;;;;4.87;1.67;;;;;;;22.69;20.28;101187.08;1786871;79;21485;-71
2021/05/10 07:29:55;;;;;;;6.08;2.05;;;;;;;22.97;20.67;101177.88;1792439;79;21191;-73
2021/05/10 07:32:24;;;;;;;5.47;2.50;;;;;;;23.22;20.42;101174.30;1775231;79;21209;-72
2021/05/10 07:34:54;;;;;;;3.45;1.70;;;;;;;23.44;20.49;101166.86;1806350;78;21173;-76
2021/05/10 07:37:22;;;;;;;3.42;2.12;;;;;;;23.78;20.01;101175.56;1779755;79;21200;-72
2021/05/10 07:39:51;;;;;;;5.22;1.80;;;;;;;23.97;19.95;101169.17;1759477;80;21171;-72
2021/05/10 07:42:21;;;;;;;7.03;1.80;;;;;;;23.79;19.55;101169.23;1803289;77;21254;-71
2021/05/10 07:44:51;;;;;;;4.10;1.92;;;;;;;23.64;19.72;101166.67;1780746;79;21206;-74
2021/05/10 07:47:19;;;;;;;4.72;1.80;;;;;;;23.71;19.63;101160.84;1773004;79;21743;-71
2021/05/10 07:49:48;;;;;;;2.92;2.10;;;;;;;23.43;19.23;101157.55;1798060;78;21372;-74
2021/05/10 07:52:16;;;;;;;4.55;1.85;;;;;;;22.97;19.25;101159.08;1795768;79;21193;-73
2021/05/10 07:54:44;;;;;;;3.42;2.00;;;;;;;22.75;19.27;101156.23;1800348;79;21653;-72
2021/05/10 07:57:12;;;;;;;3.02;1.80;;;;;;;22.71;20.30;101151.58;1799938;78;21198;-71
2021/05/10 07:59:41;;;;;;;2.92;1.80;;;;;;;23.01;20.08;101149.02;1796220;79;21206;-70
2021/05/10 08:02:08;;;;;;;2.30;1.72;;;;;;;23.02;19.62;101145.34;1770436;78;21815;-72
2021/05/10 08:04:37;;;;;;;3.80;2.17;;;;;;;23.12;19.47;101143.72;1783894;77;21194;-73
2021/05/10 08:07:10;;;;;;;2.80;1.60;;;;;;;23.20;19.36;101145.83;1780282;79;21222;-72
2021/05/10 08:09:39;;;;;;;5.53;1.87;;;;;;;23.27;19.91;101134.14;1789209;79;21171;-72
2021/05/10 08:12:09;;;;;;;5.58;2.00;;;;;;;23.60;19.87;101135.64;1772087;79;21170;-72
2021/05/10 08:14:37;;;;;;;5.00;2.00;;;;;;;23.86;19.50;101131.47;1792041;79;21705;-72
2021/05/10 08:17:05;;;;;;;6.87;2.10;;;;;;;23.91;19.69;101136.00;1794343;79;21202;-73
2021/05/10 08:19:35;;;;;;;9.45;2.00;;;;;;;23.81;19.31;101126.91;1784968;79;21155;-73
2021/05/10 08:22:04;;;;;;;3.87;1.90;;;;;;;23.87;20.11;101123.76;1786748;79;21195;-73
2021/05/10 08:24:32;;;;;;;2.55;1.67;;;;;;;23.86;19.80;101127.44;1764355;79;21211;-72
2021/05/10 08:27:00;;;;;;;3.90;2.00;;;;;;;23.79;18.93;101128.89;1781742;79;22567;-74
2021/05/10 08:29:28;;;;;;;2.70;1.92;;;;;;;23.86;20.53;101121.56;1780367;79;21774;-72
2021/05/10 08:31:57;;;;;;;6.28;2.05;;;;;;;24.00;19.61;101119.64;1776302;78;21167;-73
2021/05/10 08:34:25;;;;;;;4.22;2.17;;;;;;;24.17;19.25;101116.97;1810837;78;21194;-71
2021/05/10 08:36:55;;;;;;;2.87;2.22;;;;;;;24.37;19.84;101108.17;1781996;80;21170;-73
2021/05/10 08:39:23;;;;;;;13.43;2.55;;;;;;;24.52;18.01;101097.17;1772304;80;21370;-72
2021/05/10 08:41:51;;;;;;;6.08;2.00;;;;;;;24.63;18.78;101107.94;1781602;79;21174;-72
2021/05/10 08:44:19;;;;;;;3.60;1.67;;;;;;;24.82;18.87;101106.80;1773807;79;21348;-73
2021/05/10 08:46:47;;;;;;;5.97;2.05;;;;;;;24.65;17.94;101105.98;1763535;80;21159;-72
2021/05/10 08:49:20;;;;;;;3.10;1.60;;;;;;;24.11;18.37;101108.90;1779244;79;21131;-73
2021/05/10 08:51:45;;;;;;;4.00;1.80;;;;;;;23.75;18.79;101104.55;1757856;80;21291;-72
2021/05/10 08:54:24;;;;;;;3.58;1.85;;;;;;;23.80;19.61;101101.86;1761214;80;21194;-73
2021/05/10 08:56:53;;;;;;;2.37;1.75;;;;;;;23.74;19.42;101104.13;1767038;80;21536;-72
2021/05/10 08:59:22;;;;;;;4.33;1.90;;;;;;;23.33;19.83;101108.13;1772409;79;21209;-72
2021/05/10 09:02:01;;;;;;;3.92;1.75;;;;;;;23.06;19.71;101104.36;1768772;79;21258;-71
2021/05/10 09:04:38;;;;;;;2.83;1.80;;;;;;;23.01;20.18;101100.66;1762039;79;21376;-71
2021/05/10 09:07:19;;;;;;;3.42;1.85;;;;;;;23.12;19.76;101107.45;1768939;80;21622;-74
2021/05/10 09:10:01;;;;;;;4.65;1.80;;;;;;;22.93;19.17;101101.67;1767351;80;21647;-72
2021/05/10 09:12:48;;;;;;;3.27;1.80;;;;;;;22.72;19.54;101100.07;1770047;80;21191;-72
2021/05/10 09:15:22;;;;;;;11.93;2.10;;;;;;;22.39;19.89;101094.34;1763505;80;21211;-73
2021/05/10 09:17:54;;;;;;;4.15;1.95;;;;;;;22.47;20.20;101091.09;1761052;80;22215;-73
2021/05/10 09:20:28;;;;;;;4.35;2.15;;;;;;;22.51;20.71;101081.02;1756508;80;21258;-74
2021/05/10 09:23:11;;;;;;;4.70;1.70;;;;;;;22.45;20.42;101082.30;1750800;80;21707;-72
2021/05/10 09:25:44;;;;;;;3.20;2.05;;;;;;;22.32;19.96;101075.62;1774855;80;21158;-74
2021/05/10 09:28:25;;;;;;;4.50;1.90;;;;;;;22.28;19.57;101075.46;1774869;79;21225;-74
2021/05/10 09:30:58;;;;;;;;;;;;;;;22.23;20.04;101075.42;1777940;80;21509;-73
2021/05/10 09:33:27;;;;;;;3.92;2.30;;;;;;;22.28;20.34;101074.13;1763592;80;20602;-74
2021/05/10 09:35:58;;;;;;;2.72;1.85;;;;;;;22.44;19.98;101075.23;1767753;80;21206;-73
2021/05/10 09:38:28;;;;;;;3.85;1.98;;;;;;;22.74;19.36;101077.51;1769234;80;21171;-72
2021/05/10 09:41:08;;;;;;;5.12;1.72;;;;;;;22.91;19.76;101072.72;1756240;80;21172;-71
2021/05/10 09:43:38;;;;;;;3.33;2.10;;;;;;;22.89;19.72;101070.63;1758696;80;21784;-72
2021/05/10 09:46:11;;;;;;;5.33;1.70;;;;;;;22.89;20.60;101064.80;1790914;78;21182;-72
2021/05/10 09:48:44;;;;;;;3.67;1.70;;;;;;;23.07;20.76;101061.23;1783170;78;21252;-70
2021/05/10 09:51:15;;;;;;;2.45;1.95;;;;;;;23.41;20.40;101054.66;1786361;79;21613;-71
2021/05/10 09:53:48;;;;;;;1.90;1.65;;;;;;;23.22;18.62;101050.69;1804429;79;21154;-71
2021/05/10 09:58:57;;;;;;;4.35;1.80;;;;;;;23.35;18.57;101051.09;1795409;78;21219;-73
2021/05/10 10:01:28;;;;;;;2.98;2.00;;;;;;;23.64;18.88;101047.02;1814938;78;21279;-69
2021/05/10 10:03:59;;;;;;;;;;;;;;;23.84;18.61;101045.50;1765292;78;21682;-70
2021/05/10 10:06:28;;;;;;;2.90;1.85;;;;;;;24.05;18.53;101037.57;1753536;80;20241;-71
2021/05/10 10:08:56;;;;;;;5.35;1.80;;;;;;;24.20;18.06;101035.97;1739542;80;22422;-71
2021/05/10 10:11:26;;;;;;;1.98;1.50;;;;;;;23.73;19.04;101041.91;1712549;83;21223;-71
2021/05/10 10:13:56;;;;;;;2.00;1.65;;;;;;;23.41;18.69;101041.22;1724332;82;21209;-73
2021/05/10 10:16:26;;;;;;;2.92;1.65;;;;;;;23.16;20.79;101035.02;1735669;81;21141;-73
2021/05/10 10:18:59;;;;;;;3.22;1.35;;;;;;;23.23;19.61;101025.52;1734690;80;21295;-73
2021/05/10 10:21:26;;;;;;;2.33;1.70;;;;;;;23.29;19.56;101021.52;1759886;80;21290;-72
2021/05/10 10:24:01;;;;;;;2.33;1.62;;;;;;;23.54;19.48;101016.95;1735984;80;21771;-71
2021/05/10 10:26:33;;;;;;;1.60;1.40;;;;;;;23.89;18.32;101010.67;1735971;80;21260;-71
2021/05/10 10:29:10;;;;;;;2.52;1.72;;;;;;;23.31;18.64;101007.98;1728803;82;21214;-71
2021/05/10 10:31:48;;;;;;;2.17;1.60;;;;;;;23.21;19.37;101012.71;1715521;82;21431;-72
2021/05/10 10:34:28;;;;;;;2.27;1.62;;;;;;;23.21;18.78;101011.37;1721909;82;21333;-74
2021/05/10 10:37:01;;;;;;;3.58;2.12;;;;;;;23.14;19.00;101011.44;1724685;82;21228;-70
2021/05/10 10:39:32;;;;;;;2.58;1.47;;;;;;;22.85;20.10;101010.09;1715939;82;21210;-72
2021/05/10 10:42:11;;;;;;;3.12;1.75;;;;;;;22.91;19.62;101005.08;1726271;82;21621;-72
2021/05/10 10:44:53;;;;;;;2.33;1.80;;;;;;;22.76;20.01;100996.36;1712064;82;21182;-69
2021/05/10 10:47:44;;;;;;;5.42;1.80;;;;;;;22.60;19.39;101003.34;1727341;82;22708;-70
2021/05/10 10:50:15;;;;;;;4.67;1.80;;;;;;;22.71;19.81;100996.34;1733544;81;21214;-71
2021/05/10 10:52:57;;;;;;;4.90;1.80;;;;;;;22.31;20.25;100998.76;1739340;82;21218;-74
2021/05/10 10:58:21;;;;;;;4.85;1.60;;;;;;;22.12;21.05;100991.16;1861240;76;22729;-71
2021/05/10 11:01:14;;;;;;;5.53;2.00;;;;;;;21.99;20.62;100995.22;1832631;77;21203;-72
2021/05/10 11:03:42;;;;;;;3.87;1.75;;;;;;;21.82;21.43;100988.84;1833644;77;21318;-72
2021/05/10 11:06:10;;;;;;;3.05;1.70;;;;;;;21.84;20.85;100974.00;1837062;77;23077;-71
2021/05/10 11:08:54;;;;;;;2.55;1.85;;;;;;;22.12;20.92;100973.72;1778651;79;21130;-71
2021/05/10 11:11:39;;;;;;;5.42;1.95;;;;;;;22.29;20.34;100961.82;1786197;78;21260;-72
2021/05/10 11:14:15;;;;;;;5.33;2.05;;;;;;;22.04;20.25;100960.02;1784127;78;21661;-70
2021/05/10 11:16:53;;;;;;;4.28;2.00;;;;;;;22.03;21.19;100966.83;1799741;79;22552;-71
2021/05/10 11:19:37;;;;;;;5.87;2.15;;;;;;;21.86;21.03;100960.85;1743069;80;21175;-70
2021/05/10 11:22:35;;;;;;;3.55;1.90;;;;;;;21.77;21.31;100962.84;1747056;81;21207;-71
2021/05/10 11:25:39;;;;;;;8.00;1.98;;;;;;;21.78;21.25;100948.45;1746576;81;21209;-71
2021/05/10 11:28:34;;;;;;;5.37;1.90;;;;;;;21.66;21.18;100943.98;1745752;81;21202;-71
2021/05/10 11:31:08;;;;;;;4.55;2.02;;;;;;;21.66;21.79;100943.98;1738665;81;21401;-71
2021/05/10 11:34:01;;;;;;;5.53;2.60;;;;;;;21.86;22.85;100936.72;1740620;82;21193;-71
2021/05/10 11:36:48;;;;;;;4.25;1.90;;;;;;;22.20;22.23;100930.23;1745916;80;21157;-73
2021/05/10 11:39:21;;;;;;;4.83;2.30;;;;;;;22.33;20.37;100939.13;1725877;82;21154;-73
2021/05/10 11:41:50;;;;;;;4.87;2.27;;;;;;;22.07;21.36;100927.61;1710440;82;21202;-71
2021/05/10 11:44:27;;;;;;;3.80;1.70;;;;;;;22.25;21.33;100924.10;1724791;82;22295;-71
2021/05/10 11:46:58;;;;;;;4.33;1.87;;;;;;;22.46;21.81;100922.14;1740454;82;22306;-70
2021/05/10 11:49:34;;;;;;;3.07;1.83;;;;;;;22.66;20.79;100920.63;1742269;82;21178;-71
2021/05/10 11:52:20;;;;;;;8.28;2.17;;;;;;;22.51;20.71;100919.48;1733695;82;21499;-71
2021/05/10 11:54:51;;;;;;;4.90;1.70;;;;;;;22.40;21.23;100918.92;1740567;81;21194;-71
2021/05/10 11:57:32;;;;;;;3.37;1.52;;;;;;;22.30;20.82;100908.52;1743402;81;21482;-72